sensor_id;sensor_type;location;lat;lon;timestamp;temperature;humidity
27026;DHT22;14565;48.626;8.978;2023-06-05T00:01:25;12.60;99.90
27026;DHT22;14565;48.626;8.978;2023-06-05T00:03:51;12.80;99.50
27026;DHT22;14565;48.626;8.978;2023-06-05T00:06:18;12.90;98.60
27026;DHT22;14565;48.626;8.978;2023-06-05T00:08:45;12.80;98.80
27026;DHT22;14565;48.626;8.978;2023-06-05T00:11:10;12.70;99.00
27026;DHT22;14565;48.626;8.978;2023-06-05T00:13:36;13.10;98.60
27026;DHT22;14565;48.626;8.978;2023-06-05T00:16:02;12.90;98.30
27026;DHT22;14565;48.626;8.978;2023-06-05T00:18:29;12.90;98.60
27026;DHT22;14565;48.626;8.978;2023-06-05T00:20:55;12.80;98.70
27026;DHT22;14565;48.626;8.978;2023-06-05T00:23:21;12.80;98.40
27026;DHT22;14565;48.626;8.978;2023-06-05T00:25:46;12.90;98.50
27026;DHT22;14565;48.626;8.978;2023-06-05T00:28:13;12.80;98.60
27026;DHT22;14565;48.626;8.978;2023-06-05T00:30:39;12.70;99.00
27026;DHT22;14565;48.626;8.978;2023-06-05T00:33:05;12.60;99.10
27026;DHT22;14565;48.626;8.978;2023-06-05T00:35:31;12.50;99.50
27026;DHT22;14565;48.626;8.978;2023-06-05T00:37:56;12.50;99.90
27026;DHT22;14565;48.626;8.978;2023-06-05T00:40:22;12.50;99.80
27026;DHT22;14565;48.626;8.978;2023-06-05T00:42:48;12.70;99.50
27026;DHT22;14565;48.626;8.978;2023-06-05T00:45:15;12.80;99.10
27026;DHT22;14565;48.626;8.978;2023-06-05T00:47:41;12.60;99.70
27026;DHT22;14565;48.626;8.978;2023-06-05T00:50:07;12.30;99.90
27026;DHT22;14565;48.626;8.978;2023-06-05T00:52:35;12.10;99.90
27026;DHT22;14565;48.626;8.978;2023-06-05T00:55:02;12.10;99.90
27026;DHT22;14565;48.626;8.978;2023-06-05T00:57:29;12.20;99.90
27026;DHT22;14565;48.626;8.978;2023-06-05T00:59:56;12.10;99.90
27026;DHT22;14565;48.626;8.978;2023-06-05T01:02:21;12.20;99.90
27026;DHT22;14565;48.626;8.978;2023-06-05T01:04:48;12.30;99.90
27026;DHT22;14565;48.626;8.978;2023-06-05T01:07:14;12.30;99.90
27026;DHT22;14565;48.626;8.978;2023-06-05T01:09:42;12.20;99.90
27026;DHT22;14565;48.626;8.978;2023-06-05T01:12:22;12.10;99.90
27026;DHT22;14565;48.626;8.978;2023-06-05T01:14:51;12.00;99.90
27026;DHT22;14565;48.626;8.978;2023-06-05T01:17:25;12.00;99.90
27026;DHT22;14565;48.626;8.978;2023-06-05T01:19:55;11.90;99.90
27026;DHT22;14565;48.626;8.978;2023-06-05T01:22:25;11.90;99.90
27026;DHT22;14565;48.626;8.978;2023-06-05T01:24:51;11.90;99.90
27026;DHT22;14565;48.626;8.978;2023-06-05T01:27:19;11.80;99.90
27026;DHT22;14565;48.626;8.978;2023-06-05T01:35:11;11.80;99.90
27026;DHT22;14565;48.626;8.978;2023-06-05T01:37:43;11.70;99.90
27026;DHT22;14565;48.626;8.978;2023-06-05T01:40:17;11.60;99.90
27026;DHT22;14565;48.626;8.978;2023-06-05T01:42:46;11.60;99.90
27026;DHT22;14565;48.626;8.978;2023-06-05T01:45:14;11.60;99.90
27026;DHT22;14565;48.626;8.978;2023-06-05T01:47:40;11.40;99.90
27026;DHT22;14565;48.626;8.978;2023-06-05T01:50:07;11.40;99.90
27026;DHT22;14565;48.626;8.978;2023-06-05T01:52:35;11.30;99.90
27026;DHT22;14565;48.626;8.978;2023-06-05T01:55:02;11.30;99.90
27026;DHT22;14565;48.626;8.978;2023-06-05T01:57:29;11.20;99.90
27026;DHT22;14565;48.626;8.978;2023-06-05T01:59:55;11.20;99.90
27026;DHT22;14565;48.626;8.978;2023-06-05T02:02:21;11.10;99.90
27026;DHT22;14565;48.626;8.978;2023-06-05T02:04:49;11.10;99.90
27026;DHT22;14565;48.626;8.978;2023-06-05T02:07:15;11.30;99.90
27026;DHT22;14565;48.626;8.978;2023-06-05T02:09:42;11.40;99.90
27026;DHT22;14565;48.626;8.978;2023-06-05T02:12:08;11.20;99.90
27026;DHT22;14565;48.626;8.978;2023-06-05T02:14:34;11.20;99.90
27026;DHT22;14565;48.626;8.978;2023-06-05T02:17:04;11.30;99.90
27026;DHT22;14565;48.626;8.978;2023-06-05T02:19:34;11.20;99.90
27026;DHT22;14565;48.626;8.978;2023-06-05T02:22:00;11.00;99.90
27026;DHT22;14565;48.626;8.978;2023-06-05T02:24:27;11.00;99.90
27026;DHT22;14565;48.626;8.978;2023-06-05T02:26:53;11.00;99.90
27026;DHT22;14565;48.626;8.978;2023-06-05T02:29:19;11.00;99.90
27026;DHT22;14565;48.626;8.978;2023-06-05T02:31:45;11.00;99.90
27026;DHT22;14565;48.626;8.978;2023-06-05T02:34:11;10.90;99.90
27026;DHT22;14565;48.626;8.978;2023-06-05T02:36:37;10.80;99.90
27026;DHT22;14565;48.626;8.978;2023-06-05T02:39:03;11.10;99.90
27026;DHT22;14565;48.626;8.978;2023-06-05T02:41:32;11.10;99.90
27026;DHT22;14565;48.626;8.978;2023-06-05T02:43:58;11.00;99.90
27026;DHT22;14565;48.626;8.978;2023-06-05T02:46:25;10.80;99.90
27026;DHT22;14565;48.626;8.978;2023-06-05T02:48:52;11.00;99.90
27026;DHT22;14565;48.626;8.978;2023-06-05T02:51:18;10.80;99.90
27026;DHT22;14565;48.626;8.978;2023-06-05T02:53:45;10.70;99.90
27026;DHT22;14565;48.626;8.978;2023-06-05T02:56:11;10.90;99.90
27026;DHT22;14565;48.626;8.978;2023-06-05T02:58:38;11.00;99.90
27026;DHT22;14565;48.626;8.978;2023-06-05T03:01:05;10.80;99.90
27026;DHT22;14565;48.626;8.978;2023-06-05T03:03:34;10.50;99.90
27026;DHT22;14565;48.626;8.978;2023-06-05T03:06:01;10.40;99.90
27026;DHT22;14565;48.626;8.978;2023-06-05T03:08:34;10.40;99.90
27026;DHT22;14565;48.626;8.978;2023-06-05T03:11:00;10.40;99.90
27026;DHT22;14565;48.626;8.978;2023-06-05T03:13:27;10.40;99.90
27026;DHT22;14565;48.626;8.978;2023-06-05T03:15:54;10.50;99.90
27026;DHT22;14565;48.626;8.978;2023-06-05T03:18:29;10.40;99.90
27026;DHT22;14565;48.626;8.978;2023-06-05T03:20:56;10.30;99.90
27026;DHT22;14565;48.626;8.978;2023-06-05T03:23:25;10.40;99.90
27026;DHT22;14565;48.626;8.978;2023-06-05T03:25:53;10.30;99.90
27026;DHT22;14565;48.626;8.978;2023-06-05T03:28:20;10.30;99.90
27026;DHT22;14565;48.626;8.978;2023-06-05T03:30:47;10.30;99.90
27026;DHT22;14565;48.626;8.978;2023-06-05T03:33:14;10.20;99.90
27026;DHT22;14565;48.626;8.978;2023-06-05T03:35:45;10.20;99.90
27026;DHT22;14565;48.626;8.978;2023-06-05T03:38:12;10.30;99.90
27026;DHT22;14565;48.626;8.978;2023-06-05T03:40:38;10.40;99.90
27026;DHT22;14565;48.626;8.978;2023-06-05T03:43:07;10.70;99.90
27026;DHT22;14565;48.626;8.978;2023-06-05T03:45:37;10.70;99.90
27026;DHT22;14565;48.626;8.978;2023-06-05T03:48:06;10.50;99.90
27026;DHT22;14565;48.626;8.978;2023-06-05T03:50:32;10.70;99.90
27026;DHT22;14565;48.626;8.978;2023-06-05T03:53:02;10.30;99.90
27026;DHT22;14565;48.626;8.978;2023-06-05T03:55:32;10.20;99.90
27026;DHT22;14565;48.626;8.978;2023-06-05T03:58:19;10.60;99.90
27026;DHT22;14565;48.626;8.978;2023-06-05T04:00:47;10.90;99.90
27026;DHT22;14565;48.626;8.978;2023-06-05T04:03:17;10.80;99.90
27026;DHT22;14565;48.626;8.978;2023-06-05T04:05:43;10.60;99.90
27026;DHT22;14565;48.626;8.978;2023-06-05T04:08:10;10.40;99.90
27026;DHT22;14565;48.626;8.978;2023-06-05T04:10:37;10.60;99.90
27026;DHT22;14565;48.626;8.978;2023-06-05T04:13:03;10.50;99.90
27026;DHT22;14565;48.626;8.978;2023-06-05T04:15:29;10.50;99.90
27026;DHT22;14565;48.626;8.978;2023-06-05T04:17:55;10.50;99.90
27026;DHT22;14565;48.626;8.978;2023-06-05T04:20:22;10.40;99.90
27026;DHT22;14565;48.626;8.978;2023-06-05T04:22:50;10.50;99.90
27026;DHT22;14565;48.626;8.978;2023-06-05T04:25:17;10.70;99.90
27026;DHT22;14565;48.626;8.978;2023-06-05T04:27:44;10.90;99.90
27026;DHT22;14565;48.626;8.978;2023-06-05T04:30:12;10.80;99.90
27026;DHT22;14565;48.626;8.978;2023-06-05T04:32:40;10.80;99.90
27026;DHT22;14565;48.626;8.978;2023-06-05T04:35:08;10.80;99.90
27026;DHT22;14565;48.626;8.978;2023-06-05T04:37:36;11.00;99.90
27026;DHT22;14565;48.626;8.978;2023-06-05T04:40:03;11.10;99.90
27026;DHT22;14565;48.626;8.978;2023-06-05T04:42:35;11.20;99.90
27026;DHT22;14565;48.626;8.978;2023-06-05T04:45:04;11.50;99.90
27026;DHT22;14565;48.626;8.978;2023-06-05T04:47:32;11.90;99.90
27026;DHT22;14565;48.626;8.978;2023-06-05T04:49:58;11.80;99.90
27026;DHT22;14565;48.626;8.978;2023-06-05T04:52:25;11.80;99.90
27026;DHT22;14565;48.626;8.978;2023-06-05T04:54:52;11.80;99.90
27026;DHT22;14565;48.626;8.978;2023-06-05T04:57:18;11.90;99.90
27026;DHT22;14565;48.626;8.978;2023-06-05T04:59:45;12.00;99.90
27026;DHT22;14565;48.626;8.978;2023-06-05T05:02:11;12.10;99.90
27026;DHT22;14565;48.626;8.978;2023-06-05T05:04:37;12.30;99.90
27026;DHT22;14565;48.626;8.978;2023-06-05T05:07:04;12.60;99.90
27026;DHT22;14565;48.626;8.978;2023-06-05T05:09:31;12.70;99.90
27026;DHT22;14565;48.626;8.978;2023-06-05T05:11:57;12.80;99.90
27026;DHT22;14565;48.626;8.978;2023-06-05T05:14:24;12.80;99.90
27026;DHT22;14565;48.626;8.978;2023-06-05T05:16:54;13.10;99.90
27026;DHT22;14565;48.626;8.978;2023-06-05T05:19:22;13.20;99.90
27026;DHT22;14565;48.626;8.978;2023-06-05T05:21:49;13.40;99.90
27026;DHT22;14565;48.626;8.978;2023-06-05T05:24:15;13.70;99.90
27026;DHT22;14565;48.626;8.978;2023-06-05T05:26:41;13.90;99.90
27026;DHT22;14565;48.626;8.978;2023-06-05T05:29:07;14.20;99.90
27026;DHT22;14565;48.626;8.978;2023-06-05T05:31:33;14.40;99.90
27026;DHT22;14565;48.626;8.978;2023-06-05T05:33:59;16.10;99.90
27026;DHT22;14565;48.626;8.978;2023-06-05T05:36:25;18.30;95.90
27026;DHT22;14565;48.626;8.978;2023-06-05T05:38:53;20.50;92.10
27026;DHT22;14565;48.626;8.978;2023-06-05T05:41:19;21.70;89.40
27026;DHT22;14565;48.626;8.978;2023-06-05T05:43:46;24.90;82.40
27026;DHT22;14565;48.626;8.978;2023-06-05T05:46:13;24.30;78.70
27026;DHT22;14565;48.626;8.978;2023-06-05T05:48:39;25.40;78.50
27026;DHT22;14565;48.626;8.978;2023-06-05T05:51:06;25.70;74.00
27026;DHT22;14565;48.626;8.978;2023-06-05T05:53:32;27.40;71.70
27026;DHT22;14565;48.626;8.978;2023-06-05T05:55:58;27.60;67.70
27026;DHT22;14565;48.626;8.978;2023-06-05T05:58:24;27.40;68.00
27026;DHT22;14565;48.626;8.978;2023-06-05T06:00:50;28.10;66.80
27026;DHT22;14565;48.626;8.978;2023-06-05T06:03:17;30.10;62.40
27026;DHT22;14565;48.626;8.978;2023-06-05T06:05:43;29.90;61.70
27026;DHT22;14565;48.626;8.978;2023-06-05T06:08:10;27.80;64.30
27026;DHT22;14565;48.626;8.978;2023-06-05T06:10:36;26.60;64.80
27026;DHT22;14565;48.626;8.978;2023-06-05T06:13:02;28.70;62.20
27026;DHT22;14565;48.626;8.978;2023-06-05T06:15:28;29.30;62.10
27026;DHT22;14565;48.626;8.978;2023-06-05T06:17:53;30.40;58.60
27026;DHT22;14565;48.626;8.978;2023-06-05T06:20:19;29.90;59.00
27026;DHT22;14565;48.626;8.978;2023-06-05T06:22:46;28.80;60.80
27026;DHT22;14565;48.626;8.978;2023-06-05T06:25:12;30.70;58.80
27026;DHT22;14565;48.626;8.978;2023-06-05T06:27:40;28.80;59.00
27026;DHT22;14565;48.626;8.978;2023-06-05T06:30:06;29.20;58.60
27026;DHT22;14565;48.626;8.978;2023-06-05T06:32:33;28.70;59.80
27026;DHT22;14565;48.626;8.978;2023-06-05T06:34:59;30.50;59.70
27026;DHT22;14565;48.626;8.978;2023-06-05T06:37:25;31.20;56.40
27026;DHT22;14565;48.626;8.978;2023-06-05T06:39:51;29.00;59.00
27026;DHT22;14565;48.626;8.978;2023-06-05T06:42:17;30.40;58.50
27026;DHT22;14565;48.626;8.978;2023-06-05T06:44:42;31.40;57.00
27026;DHT22;14565;48.626;8.978;2023-06-05T06:47:08;28.80;59.00
27026;DHT22;14565;48.626;8.978;2023-06-05T06:49:34;30.00;58.80
27026;DHT22;14565;48.626;8.978;2023-06-05T06:52:01;30.60;57.90
27026;DHT22;14565;48.626;8.978;2023-06-05T06:54:27;31.40;58.50
27026;DHT22;14565;48.626;8.978;2023-06-05T06:56:55;30.90;55.20
27026;DHT22;14565;48.626;8.978;2023-06-05T06:59:20;30.40;55.50
27026;DHT22;14565;48.626;8.978;2023-06-05T07:02:07;30.10;55.90
27026;DHT22;14565;48.626;8.978;2023-06-05T07:04:33;29.30;58.00
27026;DHT22;14565;48.626;8.978;2023-06-05T07:06:59;28.90;58.70
27026;DHT22;14565;48.626;8.978;2023-06-05T07:09:26;28.50;58.10
27026;DHT22;14565;48.626;8.978;2023-06-05T07:11:53;27.90;59.00
27026;DHT22;14565;48.626;8.978;2023-06-05T07:14:21;28.10;59.70
27026;DHT22;14565;48.626;8.978;2023-06-05T07:16:54;28.00;59.50
27026;DHT22;14565;48.626;8.978;2023-06-05T07:19:22;27.80;60.80
27026;DHT22;14565;48.626;8.978;2023-06-05T07:21:47;27.20;62.80
27026;DHT22;14565;48.626;8.978;2023-06-05T07:24:13;27.60;61.40
27026;DHT22;14565;48.626;8.978;2023-06-05T07:26:39;27.80;62.70
27026;DHT22;14565;48.626;8.978;2023-06-05T07:29:05;27.00;61.90
27026;DHT22;14565;48.626;8.978;2023-06-05T07:31:31;28.40;61.70
27026;DHT22;14565;48.626;8.978;2023-06-05T07:33:56;28.30;60.60
27026;DHT22;14565;48.626;8.978;2023-06-05T07:36:22;27.90;62.10
27026;DHT22;14565;48.626;8.978;2023-06-05T07:38:48;27.70;63.20
27026;DHT22;14565;48.626;8.978;2023-06-05T07:41:15;26.10;65.90
27026;DHT22;14565;48.626;8.978;2023-06-05T07:43:40;26.60;66.50
27026;DHT22;14565;48.626;8.978;2023-06-05T07:46:07;26.30;67.80
27026;DHT22;14565;48.626;8.978;2023-06-05T07:48:35;25.80;67.40
27026;DHT22;14565;48.626;8.978;2023-06-05T07:51:01;25.00;70.00
27026;DHT22;14565;48.626;8.978;2023-06-05T07:53:26;24.20;71.70
27026;DHT22;14565;48.626;8.978;2023-06-05T07:55:52;23.50;75.10
27026;DHT22;14565;48.626;8.978;2023-06-05T07:58:18;23.60;75.20
27026;DHT22;14565;48.626;8.978;2023-06-05T08:00:44;23.80;75.20
27026;DHT22;14565;48.626;8.978;2023-06-05T08:03:14;24.00;76.20
27026;DHT22;14565;48.626;8.978;2023-06-05T08:05:48;24.20;75.10
27026;DHT22;14565;48.626;8.978;2023-06-05T08:08:14;23.50;77.90
27026;DHT22;14565;48.626;8.978;2023-06-05T08:10:40;23.70;77.80
27026;DHT22;14565;48.626;8.978;2023-06-05T08:13:07;23.90;80.50
27026;DHT22;14565;48.626;8.978;2023-06-05T08:15:33;23.90;78.00
27026;DHT22;14565;48.626;8.978;2023-06-05T08:17:59;24.40;77.80
27026;DHT22;14565;48.626;8.978;2023-06-05T08:20:25;24.30;79.40
27026;DHT22;14565;48.626;8.978;2023-06-05T08:22:50;24.30;78.40
27026;DHT22;14565;48.626;8.978;2023-06-05T08:25:16;23.80;78.80
27026;DHT22;14565;48.626;8.978;2023-06-05T08:27:42;23.80;80.00
27026;DHT22;14565;48.626;8.978;2023-06-05T08:30:08;24.00;79.20
27026;DHT22;14565;48.626;8.978;2023-06-05T08:32:34;23.90;82.00
27026;DHT22;14565;48.626;8.978;2023-06-05T08:34:59;23.50;82.50
27026;DHT22;14565;48.626;8.978;2023-06-05T08:37:25;22.80;83.30
27026;DHT22;14565;48.626;8.978;2023-06-05T08:39:53;22.70;84.20
27026;DHT22;14565;48.626;8.978;2023-06-05T08:42:19;23.30;82.90
27026;DHT22;14565;48.626;8.978;2023-06-05T08:44:48;23.60;81.40
27026;DHT22;14565;48.626;8.978;2023-06-05T08:47:15;23.50;81.70
27026;DHT22;14565;48.626;8.978;2023-06-05T08:49:41;23.80;83.40
27026;DHT22;14565;48.626;8.978;2023-06-05T08:52:08;24.10;82.00
27026;DHT22;14565;48.626;8.978;2023-06-05T08:54:38;23.30;85.80
27026;DHT22;14565;48.626;8.978;2023-06-05T08:57:05;23.10;87.30
27026;DHT22;14565;48.626;8.978;2023-06-05T08:59:32;23.40;86.20
27026;DHT22;14565;48.626;8.978;2023-06-05T09:01:58;23.60;86.80
27026;DHT22;14565;48.626;8.978;2023-06-05T09:04:24;23.70;85.90
27026;DHT22;14565;48.626;8.978;2023-06-05T09:06:51;23.60;86.50
27026;DHT22;14565;48.626;8.978;2023-06-05T09:09:20;24.10;87.60
27026;DHT22;14565;48.626;8.978;2023-06-05T09:11:47;24.30;86.10
27026;DHT22;14565;48.626;8.978;2023-06-05T09:14:12;23.70;89.10
27026;DHT22;14565;48.626;8.978;2023-06-05T09:16:42;22.90;89.40
27026;DHT22;14565;48.626;8.978;2023-06-05T09:19:08;23.30;90.20
27026;DHT22;14565;48.626;8.978;2023-06-05T09:21:35;23.30;89.30
27026;DHT22;14565;48.626;8.978;2023-06-05T09:24:15;23.50;90.10
27026;DHT22;14565;48.626;8.978;2023-06-05T09:29:24;23.30;90.50
27026;DHT22;14565;48.626;8.978;2023-06-05T09:31:51;23.20;90.50
27026;DHT22;14565;48.626;8.978;2023-06-05T09:34:25;23.10;91.30
27026;DHT22;14565;48.626;8.978;2023-06-05T09:36:51;22.80;90.40
27026;DHT22;14565;48.626;8.978;2023-06-05T09:39:18;23.40;90.80
27026;DHT22;14565;48.626;8.978;2023-06-05T09:41:46;23.50;90.90
27026;DHT22;14565;48.626;8.978;2023-06-05T09:44:13;23.60;90.50
27026;DHT22;14565;48.626;8.978;2023-06-05T09:49:54;23.60;90.50
27026;DHT22;14565;48.626;8.978;2023-06-05T09:52:19;24.00;90.00
27026;DHT22;14565;48.626;8.978;2023-06-05T09:54:46;23.80;89.50
27026;DHT22;14565;48.626;8.978;2023-06-05T09:57:14;24.00;89.10
27026;DHT22;14565;48.626;8.978;2023-06-05T09:59:54;23.40;89.50
27026;DHT22;14565;48.626;8.978;2023-06-05T10:02:23;23.70;90.20
27026;DHT22;14565;48.626;8.978;2023-06-05T10:05:12;23.70;90.00
27026;DHT22;14565;48.626;8.978;2023-06-05T10:07:37;24.00;87.80
27026;DHT22;14565;48.626;8.978;2023-06-05T10:10:08;24.20;89.80
27026;DHT22;14565;48.626;8.978;2023-06-05T10:12:35;24.30;85.40
27026;DHT22;14565;48.626;8.978;2023-06-05T10:15:02;24.70;87.60
27026;DHT22;14565;48.626;8.978;2023-06-05T10:17:27;25.30;85.30
27026;DHT22;14565;48.626;8.978;2023-06-05T10:19:55;25.40;84.60
27026;DHT22;14565;48.626;8.978;2023-06-05T10:22:21;25.10;84.00
27026;DHT22;14565;48.626;8.978;2023-06-05T10:24:54;24.20;84.80
27026;DHT22;14565;48.626;8.978;2023-06-05T10:40:30;23.60;86.70
27026;DHT22;14565;48.626;8.978;2023-06-05T10:45:55;24.20;85.20
27026;DHT22;14565;48.626;8.978;2023-06-05T10:48:21;24.30;85.50
27026;DHT22;14565;48.626;8.978;2023-06-05T10:50:47;23.90;85.70
27026;DHT22;14565;48.626;8.978;2023-06-05T10:59:38;24.50;83.70
27026;DHT22;14565;48.626;8.978;2023-06-05T11:07:18;25.00;82.80
27026;DHT22;14565;48.626;8.978;2023-06-05T11:20:05;24.00;82.70
27026;DHT22;14565;48.626;8.978;2023-06-05T11:25:24;24.00;81.50
27026;DHT22;14565;48.626;8.978;2023-06-05T11:27:53;23.70;84.40
27026;DHT22;14565;48.626;8.978;2023-06-05T11:30:20;23.80;82.10
27026;DHT22;14565;48.626;8.978;2023-06-05T11:32:47;24.10;82.40
27026;DHT22;14565;48.626;8.978;2023-06-05T11:35:13;24.20;82.00
27026;DHT22;14565;48.626;8.978;2023-06-05T11:37:39;24.30;81.00
27026;DHT22;14565;48.626;8.978;2023-06-05T11:40:07;24.20;78.90
27026;DHT22;14565;48.626;8.978;2023-06-05T11:42:39;24.20;80.00
27026;DHT22;14565;48.626;8.978;2023-06-05T11:45:12;24.20;79.80
27026;DHT22;14565;48.626;8.978;2023-06-05T11:47:38;23.70;80.80
27026;DHT22;14565;48.626;8.978;2023-06-05T11:50:11;23.50;78.80
27026;DHT22;14565;48.626;8.978;2023-06-05T11:52:38;24.00;78.80
27026;DHT22;14565;48.626;8.978;2023-06-05T11:55:13;24.00;79.30
27026;DHT22;14565;48.626;8.978;2023-06-05T11:57:45;24.10;78.60
27026;DHT22;14565;48.626;8.978;2023-06-05T12:00:13;24.30;78.80
27026;DHT22;14565;48.626;8.978;2023-06-05T12:02:42;23.80;77.70
27026;DHT22;14565;48.626;8.978;2023-06-05T12:05:09;23.90;78.40
27026;DHT22;14565;48.626;8.978;2023-06-05T12:07:36;24.20;81.40
27026;DHT22;14565;48.626;8.978;2023-06-05T12:10:07;24.40;76.50
27026;DHT22;14565;48.626;8.978;2023-06-05T12:12:50;24.70;75.60
27026;DHT22;14565;48.626;8.978;2023-06-05T12:15:18;24.60;74.70
27026;DHT22;14565;48.626;8.978;2023-06-05T12:17:56;24.20;75.10
27026;DHT22;14565;48.626;8.978;2023-06-05T12:20:22;23.70;76.00
27026;DHT22;14565;48.626;8.978;2023-06-05T12:22:48;23.80;78.40
27026;DHT22;14565;48.626;8.978;2023-06-05T12:25:18;24.00;76.20
27026;DHT22;14565;48.626;8.978;2023-06-05T12:27:44;24.20;77.30
27026;DHT22;14565;48.626;8.978;2023-06-05T12:30:13;24.20;75.40
27026;DHT22;14565;48.626;8.978;2023-06-05T12:32:41;24.50;76.30
27026;DHT22;14565;48.626;8.978;2023-06-05T12:35:29;24.30;73.50
27026;DHT22;14565;48.626;8.978;2023-06-05T12:37:59;24.70;73.50
27026;DHT22;14565;48.626;8.978;2023-06-05T12:40:25;24.20;74.80
27026;DHT22;14565;48.626;8.978;2023-06-05T12:42:51;24.20;75.50
27026;DHT22;14565;48.626;8.978;2023-06-05T12:45:16;24.10;75.80
27026;DHT22;14565;48.626;8.978;2023-06-05T12:47:43;24.00;75.20
27026;DHT22;14565;48.626;8.978;2023-06-05T12:50:10;23.90;77.20
27026;DHT22;14565;48.626;8.978;2023-06-05T12:52:39;23.90;73.70
27026;DHT22;14565;48.626;8.978;2023-06-05T12:55:06;23.90;72.90
27026;DHT22;14565;48.626;8.978;2023-06-05T12:57:33;24.00;72.80
27026;DHT22;14565;48.626;8.978;2023-06-05T13:00:05;24.30;71.80
27026;DHT22;14565;48.626;8.978;2023-06-05T13:02:37;24.50;73.70
27026;DHT22;14565;48.626;8.978;2023-06-05T13:05:03;24.30;71.20
27026;DHT22;14565;48.626;8.978;2023-06-05T13:07:30;24.00;72.10
27026;DHT22;14565;48.626;8.978;2023-06-05T13:09:56;24.40;72.70
27026;DHT22;14565;48.626;8.978;2023-06-05T13:12:22;24.60;71.00
27026;DHT22;14565;48.626;8.978;2023-06-05T13:14:48;24.50;71.60
27026;DHT22;14565;48.626;8.978;2023-06-05T13:17:14;24.70;72.40
27026;DHT22;14565;48.626;8.978;2023-06-05T13:19:39;24.60;70.60
27026;DHT22;14565;48.626;8.978;2023-06-05T13:22:05;24.70;71.00
27026;DHT22;14565;48.626;8.978;2023-06-05T13:24:31;24.80;71.20
27026;DHT22;14565;48.626;8.978;2023-06-05T13:26:57;24.70;70.10
27026;DHT22;14565;48.626;8.978;2023-06-05T13:29:23;24.50;71.30
27026;DHT22;14565;48.626;8.978;2023-06-05T13:31:49;24.70;69.60
27026;DHT22;14565;48.626;8.978;2023-06-05T13:34:15;24.90;68.60
27026;DHT22;14565;48.626;8.978;2023-06-05T13:36:40;24.90;68.00
27026;DHT22;14565;48.626;8.978;2023-06-05T13:39:07;25.00;69.80
27026;DHT22;14565;48.626;8.978;2023-06-05T13:41:32;25.10;68.10
27026;DHT22;14565;48.626;8.978;2023-06-05T13:43:58;25.00;67.90
27026;DHT22;14565;48.626;8.978;2023-06-05T13:46:24;25.20;66.50
27026;DHT22;14565;48.626;8.978;2023-06-05T13:48:51;25.30;65.30
27026;DHT22;14565;48.626;8.978;2023-06-05T13:51:17;25.40;67.20
27026;DHT22;14565;48.626;8.978;2023-06-05T13:53:44;24.90;67.70
27026;DHT22;14565;48.626;8.978;2023-06-05T13:56:10;25.10;67.60
27026;DHT22;14565;48.626;8.978;2023-06-05T13:58:36;25.10;69.00
27026;DHT22;14565;48.626;8.978;2023-06-05T14:01:02;24.40;67.40
27026;DHT22;14565;48.626;8.978;2023-06-05T14:03:28;24.20;70.20
27026;DHT22;14565;48.626;8.978;2023-06-05T14:05:53;24.10;71.20
27026;DHT22;14565;48.626;8.978;2023-06-05T14:08:19;24.10;71.80
27026;DHT22;14565;48.626;8.978;2023-06-05T14:10:46;24.00;68.10
27026;DHT22;14565;48.626;8.978;2023-06-05T14:13:12;24.10;68.00
27026;DHT22;14565;48.626;8.978;2023-06-05T14:15:38;24.30;68.20
27026;DHT22;14565;48.626;8.978;2023-06-05T14:18:05;24.60;67.70
27026;DHT22;14565;48.626;8.978;2023-06-05T14:20:31;24.70;66.20
27026;DHT22;14565;48.626;8.978;2023-06-05T14:23:00;24.80;67.00
27026;DHT22;14565;48.626;8.978;2023-06-05T14:25:28;24.90;65.40
27026;DHT22;14565;48.626;8.978;2023-06-05T14:27:55;25.10;66.40
27026;DHT22;14565;48.626;8.978;2023-06-05T14:30:22;25.00;68.30
27026;DHT22;14565;48.626;8.978;2023-06-05T14:32:48;25.00;65.50
27026;DHT22;14565;48.626;8.978;2023-06-05T14:35:15;24.80;65.90
27026;DHT22;14565;48.626;8.978;2023-06-05T14:37:42;24.40;65.80
27026;DHT22;14565;48.626;8.978;2023-06-05T14:40:08;24.10;67.60
27026;DHT22;14565;48.626;8.978;2023-06-05T14:42:34;24.20;65.90
27026;DHT22;14565;48.626;8.978;2023-06-05T14:45:01;24.20;70.40
27026;DHT22;14565;48.626;8.978;2023-06-05T14:47:26;24.40;68.80
27026;DHT22;14565;48.626;8.978;2023-06-05T14:49:52;24.50;69.40
27026;DHT22;14565;48.626;8.978;2023-06-05T14:52:18;24.50;71.00
27026;DHT22;14565;48.626;8.978;2023-06-05T14:54:44;24.60;72.10
27026;DHT22;14565;48.626;8.978;2023-06-05T14:57:10;24.40;71.20
27026;DHT22;14565;48.626;8.978;2023-06-05T14:59:36;24.40;69.50
27026;DHT22;14565;48.626;8.978;2023-06-05T15:02:02;24.50;72.60
27026;DHT22;14565;48.626;8.978;2023-06-05T15:04:28;24.40;68.70
27026;DHT22;14565;48.626;8.978;2023-06-05T15:06:55;24.20;68.30
27026;DHT22;14565;48.626;8.978;2023-06-05T15:09:23;24.30;70.50
27026;DHT22;14565;48.626;8.978;2023-06-05T15:11:49;24.30;70.20
27026;DHT22;14565;48.626;8.978;2023-06-05T15:14:21;24.50;68.30
27026;DHT22;14565;48.626;8.978;2023-06-05T15:16:46;24.50;67.40
27026;DHT22;14565;48.626;8.978;2023-06-05T15:19:12;24.50;67.30
27026;DHT22;14565;48.626;8.978;2023-06-05T15:21:38;24.50;68.90
27026;DHT22;14565;48.626;8.978;2023-06-05T15:24:04;24.50;70.20
27026;DHT22;14565;48.626;8.978;2023-06-05T15:26:29;24.50;70.30
27026;DHT22;14565;48.626;8.978;2023-06-05T15:28:55;24.10;70.00
27026;DHT22;14565;48.626;8.978;2023-06-05T15:31:21;24.00;72.10
27026;DHT22;14565;48.626;8.978;2023-06-05T15:33:46;24.10;72.10
27026;DHT22;14565;48.626;8.978;2023-06-05T15:36:12;24.10;71.70
27026;DHT22;14565;48.626;8.978;2023-06-05T15:38:37;24.00;70.90
27026;DHT22;14565;48.626;8.978;2023-06-05T15:41:04;24.00;70.70
27026;DHT22;14565;48.626;8.978;2023-06-05T15:43:30;23.90;70.20
27026;DHT22;14565;48.626;8.978;2023-06-05T15:45:56;24.00;71.20
27026;DHT22;14565;48.626;8.978;2023-06-05T15:48:24;24.10;70.50
27026;DHT22;14565;48.626;8.978;2023-06-05T15:50:51;24.20;69.80
27026;DHT22;14565;48.626;8.978;2023-06-05T15:53:17;24.20;68.00
27026;DHT22;14565;48.626;8.978;2023-06-05T15:55:43;24.20;70.40
27026;DHT22;14565;48.626;8.978;2023-06-05T15:58:10;24.10;69.70
27026;DHT22;14565;48.626;8.978;2023-06-05T16:00:36;23.90;70.20
27026;DHT22;14565;48.626;8.978;2023-06-05T16:03:01;24.00;69.70
27026;DHT22;14565;48.626;8.978;2023-06-05T16:05:27;24.20;70.60
27026;DHT22;14565;48.626;8.978;2023-06-05T16:07:53;24.10;69.50
27026;DHT22;14565;48.626;8.978;2023-06-05T16:10:19;24.10;71.40
27026;DHT22;14565;48.626;8.978;2023-06-05T16:12:46;24.10;69.80
27026;DHT22;14565;48.626;8.978;2023-06-05T16:15:12;24.00;69.20
27026;DHT22;14565;48.626;8.978;2023-06-05T16:17:39;24.00;68.40
27026;DHT22;14565;48.626;8.978;2023-06-05T16:20:06;24.00;69.80
27026;DHT22;14565;48.626;8.978;2023-06-05T16:22:33;23.80;68.10